sensor_id;sensor_type;location;lat;lon;timestamp;temperature;humidity
774;DHT22;370;48.810;9.150;2023-06-22T00:02:00;21.10;32.60
774;DHT22;370;48.810;9.150;2023-06-22T00:04:27;21.00;34.20
774;DHT22;370;48.810;9.150;2023-06-22T00:06:53;21.00;33.00
774;DHT22;370;48.810;9.150;2023-06-22T00:09:20;21.00;34.20
774;DHT22;370;48.810;9.150;2023-06-22T00:11:48;21.00;34.80
774;DHT22;370;48.810;9.150;2023-06-22T00:14:15;20.90;35.50
774;DHT22;370;48.810;9.150;2023-06-22T00:16:42;20.90;35.60
774;DHT22;370;48.810;9.150;2023-06-22T00:19:09;20.90;35.10
774;DHT22;370;48.810;9.150;2023-06-22T00:21:37;20.80;36.50
774;DHT22;370;48.810;9.150;2023-06-22T00:24:04;20.90;36.90
774;DHT22;370;48.810;9.150;2023-06-22T00:26:32;20.90;36.20
774;DHT22;370;48.810;9.150;2023-06-22T00:29:00;20.80;36.70
774;DHT22;370;48.810;9.150;2023-06-22T00:31:26;20.80;36.80
774;DHT22;370;48.810;9.150;2023-06-22T00:33:53;20.80;37.20
774;DHT22;370;48.810;9.150;2023-06-22T00:36:20;20.80;37.50
774;DHT22;370;48.810;9.150;2023-06-22T00:38:47;20.70;38.70
774;DHT22;370;48.810;9.150;2023-06-22T00:41:16;20.80;38.00
774;DHT22;370;48.810;9.150;2023-06-22T00:43:43;20.70;39.90
774;DHT22;370;48.810;9.150;2023-06-22T00:46:11;20.70;39.90
774;DHT22;370;48.810;9.150;2023-06-22T00:48:38;20.60;42.10
774;DHT22;370;48.810;9.150;2023-06-22T00:51:07;20.60;41.60
774;DHT22;370;48.810;9.150;2023-06-22T00:53:34;20.50;41.00
774;DHT22;370;48.810;9.150;2023-06-22T00:56:03;20.50;41.80
774;DHT22;370;48.810;9.150;2023-06-22T00:58:31;20.60;39.90
774;DHT22;370;48.810;9.150;2023-06-22T01:00:58;20.70;39.90
774;DHT22;370;48.810;9.150;2023-06-22T01:03:27;20.80;37.50
774;DHT22;370;48.810;9.150;2023-06-22T01:05:59;20.50;39.80
774;DHT22;370;48.810;9.150;2023-06-22T01:08:33;20.60;39.80
774;DHT22;370;48.810;9.150;2023-06-22T01:11:08;20.80;38.90
774;DHT22;370;48.810;9.150;2023-06-22T01:13:43;20.90;36.20
774;DHT22;370;48.810;9.150;2023-06-22T01:16:14;20.60;37.80
774;DHT22;370;48.810;9.150;2023-06-22T01:18:44;20.60;38.90
774;DHT22;370;48.810;9.150;2023-06-22T01:21:15;20.70;39.00
774;DHT22;370;48.810;9.150;2023-06-22T01:23:52;20.70;36.80
774;DHT22;370;48.810;9.150;2023-06-22T01:26:28;20.50;38.80
774;DHT22;370;48.810;9.150;2023-06-22T01:28:59;20.30;41.10
774;DHT22;370;48.810;9.150;2023-06-22T01:31:27;20.40;40.80
774;DHT22;370;48.810;9.150;2023-06-22T01:33:58;20.50;39.80
774;DHT22;370;48.810;9.150;2023-06-22T01:36:26;20.50;39.50
774;DHT22;370;48.810;9.150;2023-06-22T01:38:53;20.50;39.70
774;DHT22;370;48.810;9.150;2023-06-22T01:41:20;20.50;40.50
774;DHT22;370;48.810;9.150;2023-06-22T01:43:48;20.50;41.30
774;DHT22;370;48.810;9.150;2023-06-22T01:46:18;20.50;39.70
774;DHT22;370;48.810;9.150;2023-06-22T01:48:46;20.50;39.70
774;DHT22;370;48.810;9.150;2023-06-22T01:51:13;20.40;39.90
774;DHT22;370;48.810;9.150;2023-06-22T01:53:40;20.30;41.90
774;DHT22;370;48.810;9.150;2023-06-22T01:56:07;20.30;42.60
774;DHT22;370;48.810;9.150;2023-06-22T01:58:37;20.20;44.10
774;DHT22;370;48.810;9.150;2023-06-22T02:01:10;20.00;47.30
774;DHT22;370;48.810;9.150;2023-06-22T02:03:42;20.10;46.20
774;DHT22;370;48.810;9.150;2023-06-22T02:06:13;20.10;45.70
774;DHT22;370;48.810;9.150;2023-06-22T02:08:45;20.10;46.80
774;DHT22;370;48.810;9.150;2023-06-22T02:11:15;20.10;47.00
774;DHT22;370;48.810;9.150;2023-06-22T02:13:43;20.00;47.20
774;DHT22;370;48.810;9.150;2023-06-22T02:16:11;20.00;47.70
774;DHT22;370;48.810;9.150;2023-06-22T02:18:46;20.00;46.60
774;DHT22;370;48.810;9.150;2023-06-22T02:21:12;19.90;47.30
774;DHT22;370;48.810;9.150;2023-06-22T02:23:39;19.80;47.20
774;DHT22;370;48.810;9.150;2023-06-22T02:26:06;19.80;48.00
774;DHT22;370;48.810;9.150;2023-06-22T02:28:32;19.80;49.40
774;DHT22;370;48.810;9.150;2023-06-22T02:30:59;19.80;49.30
774;DHT22;370;48.810;9.150;2023-06-22T02:33:26;19.70;49.40
774;DHT22;370;48.810;9.150;2023-06-22T02:35:54;19.80;49.30
774;DHT22;370;48.810;9.150;2023-06-22T02:38:21;19.80;49.40
774;DHT22;370;48.810;9.150;2023-06-22T02:40:49;19.70;48.50
774;DHT22;370;48.810;9.150;2023-06-22T02:43:16;19.60;50.90
774;DHT22;370;48.810;9.150;2023-06-22T02:45:43;19.60;51.10
774;DHT22;370;48.810;9.150;2023-06-22T02:48:10;19.60;51.40
774;DHT22;370;48.810;9.150;2023-06-22T02:50:37;19.50;52.90
774;DHT22;370;48.810;9.150;2023-06-22T02:53:05;19.50;54.40
774;DHT22;370;48.810;9.150;2023-06-22T02:55:31;19.40;53.60
774;DHT22;370;48.810;9.150;2023-06-22T02:57:58;19.40;53.60
774;DHT22;370;48.810;9.150;2023-06-22T03:00:25;19.40;53.80
774;DHT22;370;48.810;9.150;2023-06-22T03:02:56;19.40;53.60
774;DHT22;370;48.810;9.150;2023-06-22T03:05:23;19.30;55.10
774;DHT22;370;48.810;9.150;2023-06-22T03:07:51;19.30;58.70
774;DHT22;370;48.810;9.150;2023-06-22T03:10:19;19.40;55.70
774;DHT22;370;48.810;9.150;2023-06-22T03:12:46;19.80;49.40
774;DHT22;370;48.810;9.150;2023-06-22T03:15:13;20.00;44.90
774;DHT22;370;48.810;9.150;2023-06-22T03:17:40;19.80;46.40
774;DHT22;370;48.810;9.150;2023-06-22T03:20:08;19.70;49.20
774;DHT22;370;48.810;9.150;2023-06-22T03:22:36;19.60;48.30
774;DHT22;370;48.810;9.150;2023-06-22T03:25:03;19.40;50.90
774;DHT22;370;48.810;9.150;2023-06-22T03:27:36;19.40;51.20
774;DHT22;370;48.810;9.150;2023-06-22T03:30:03;19.30;53.90
774;DHT22;370;48.810;9.150;2023-06-22T03:32:30;19.20;56.00
774;DHT22;370;48.810;9.150;2023-06-22T03:34:57;19.10;57.30
774;DHT22;370;48.810;9.150;2023-06-22T03:37:24;19.10;58.70
774;DHT22;370;48.810;9.150;2023-06-22T03:39:51;19.10;58.70
774;DHT22;370;48.810;9.150;2023-06-22T03:42:18;19.10;59.00
774;DHT22;370;48.810;9.150;2023-06-22T03:44:46;19.00;60.10
774;DHT22;370;48.810;9.150;2023-06-22T03:47:13;19.00;60.60
774;DHT22;370;48.810;9.150;2023-06-22T03:49:40;19.00;61.00
774;DHT22;370;48.810;9.150;2023-06-22T03:52:07;19.00;61.10
774;DHT22;370;48.810;9.150;2023-06-22T03:54:34;19.00;61.40
774;DHT22;370;48.810;9.150;2023-06-22T03:57:00;19.00;60.00
774;DHT22;370;48.810;9.150;2023-06-22T03:59:27;19.10;58.70
774;DHT22;370;48.810;9.150;2023-06-22T04:01:55;19.10;58.70
774;DHT22;370;48.810;9.150;2023-06-22T04:04:22;19.30;57.40
774;DHT22;370;48.810;9.150;2023-06-22T04:06:48;19.30;56.60
774;DHT22;370;48.810;9.150;2023-06-22T04:09:15;19.30;56.00
774;DHT22;370;48.810;9.150;2023-06-22T04:11:42;19.30;57.00
774;DHT22;370;48.810;9.150;2023-06-22T04:14:09;19.40;56.90
774;DHT22;370;48.810;9.150;2023-06-22T04:16:35;19.40;55.50
774;DHT22;370;48.810;9.150;2023-06-22T04:19:03;19.40;56.10
774;DHT22;370;48.810;9.150;2023-06-22T04:21:30;19.40;54.50
774;DHT22;370;48.810;9.150;2023-06-22T04:23:56;19.40;54.00
774;DHT22;370;48.810;9.150;2023-06-22T04:26:23;19.40;53.10
774;DHT22;370;48.810;9.150;2023-06-22T04:28:50;19.50;52.90
774;DHT22;370;48.810;9.150;2023-06-22T04:31:20;19.60;51.50
774;DHT22;370;48.810;9.150;2023-06-22T04:33:47;19.70;51.40
774;DHT22;370;48.810;9.150;2023-06-22T04:36:16;19.80;49.40
774;DHT22;370;48.810;9.150;2023-06-22T04:38:42;20.30;42.30
774;DHT22;370;48.810;9.150;2023-06-22T04:41:09;20.60;39.00
774;DHT22;370;48.810;9.150;2023-06-22T04:43:39;20.80;38.20
774;DHT22;370;48.810;9.150;2023-06-22T04:46:06;20.70;37.20
774;DHT22;370;48.810;9.150;2023-06-22T04:48:33;20.70;37.40
774;DHT22;370;48.810;9.150;2023-06-22T04:50:59;20.60;37.90
774;DHT22;370;48.810;9.150;2023-06-22T04:53:30;20.60;38.60
774;DHT22;370;48.810;9.150;2023-06-22T04:55:57;20.70;37.50
774;DHT22;370;48.810;9.150;2023-06-22T04:58:23;20.90;37.40
774;DHT22;370;48.810;9.150;2023-06-22T05:00:52;21.10;34.50
774;DHT22;370;48.810;9.150;2023-06-22T05:03:22;21.20;31.30
774;DHT22;370;48.810;9.150;2023-06-22T05:05:51;21.30;32.00
774;DHT22;370;48.810;9.150;2023-06-22T05:08:18;21.30;29.90
774;DHT22;370;48.810;9.150;2023-06-22T05:10:46;21.20;29.30
774;DHT22;370;48.810;9.150;2023-06-22T05:13:12;21.40;28.20
774;DHT22;370;48.810;9.150;2023-06-22T05:15:39;21.40;28.70
774;DHT22;370;48.810;9.150;2023-06-22T05:18:06;21.70;26.00
774;DHT22;370;48.810;9.150;2023-06-22T05:20:33;22.10;23.80
774;DHT22;370;48.810;9.150;2023-06-22T05:23:01;22.30;22.20
774;DHT22;370;48.810;9.150;2023-06-22T05:25:28;22.50;20.90
774;DHT22;370;48.810;9.150;2023-06-22T05:27:59;22.60;18.90
774;DHT22;370;48.810;9.150;2023-06-22T05:30:27;22.90;15.20
774;DHT22;370;48.810;9.150;2023-06-22T05:32:53;22.80;16.00
774;DHT22;370;48.810;9.150;2023-06-22T05:35:20;22.70;15.30
774;DHT22;370;48.810;9.150;2023-06-22T05:37:47;22.60;16.70
774;DHT22;370;48.810;9.150;2023-06-22T05:40:14;22.90;16.80
774;DHT22;370;48.810;9.150;2023-06-22T05:42:41;23.20;14.00
774;DHT22;370;48.810;9.150;2023-06-22T05:45:09;23.40;11.30
774;DHT22;370;48.810;9.150;2023-06-22T05:47:36;23.00;13.40
774;DHT22;370;48.810;9.150;2023-06-22T05:50:03;23.00;13.90
774;DHT22;370;48.810;9.150;2023-06-22T05:52:32;23.00;13.90
774;DHT22;370;48.810;9.150;2023-06-22T05:54:58;23.20;14.00
774;DHT22;370;48.810;9.150;2023-06-22T05:57:25;23.20;12.10
774;DHT22;370;48.810;9.150;2023-06-22T05:59:52;23.30;12.70
774;DHT22;370;48.810;9.150;2023-06-22T06:02:20;23.40;11.50
774;DHT22;370;48.810;9.150;2023-06-22T06:04:47;23.10;12.10
774;DHT22;370;48.810;9.150;2023-06-22T06:07:16;23.00;12.30
774;DHT22;370;48.810;9.150;2023-06-22T06:09:43;23.20;14.00
774;DHT22;370;48.810;9.150;2023-06-22T06:12:10;23.30;11.50
774;DHT22;370;48.810;9.150;2023-06-22T06:14:36;23.40;10.70
774;DHT22;370;48.810;9.150;2023-06-22T06:17:03;23.40;10.60
774;DHT22;370;48.810;9.150;2023-06-22T06:19:31;23.60;9.90
774;DHT22;370;48.810;9.150;2023-06-22T06:21:58;23.50;10.00
774;DHT22;370;48.810;9.150;2023-06-22T06:24:26;23.70;9.90
774;DHT22;370;48.810;9.150;2023-06-22T06:26:52;23.90;9.10
774;DHT22;370;48.810;9.150;2023-06-22T06:29:19;24.00;8.70
774;DHT22;370;48.810;9.150;2023-06-22T06:31:46;24.30;7.70
774;DHT22;370;48.810;9.150;2023-06-22T06:34:13;24.70;5.90
774;DHT22;370;48.810;9.150;2023-06-22T06:36:41;25.00;4.40
774;DHT22;370;48.810;9.150;2023-06-22T06:39:08;25.30;3.00
774;DHT22;370;48.810;9.150;2023-06-22T06:41:35;25.40;1.20
774;DHT22;370;48.810;9.150;2023-06-22T06:44:01;25.60;1.00
774;DHT22;370;48.810;9.150;2023-06-22T06:46:28;25.80;1.00
774;DHT22;370;48.810;9.150;2023-06-22T06:48:55;26.00;1.00
774;DHT22;370;48.810;9.150;2023-06-22T06:51:22;26.30;1.00
774;DHT22;370;48.810;9.150;2023-06-22T06:53:50;26.50;1.00
774;DHT22;370;48.810;9.150;2023-06-22T06:56:16;26.70;1.00
774;DHT22;370;48.810;9.150;2023-06-22T06:58:43;27.00;1.00
774;DHT22;370;48.810;9.150;2023-06-22T07:04:32;27.30;1.00
774;DHT22;370;48.810;9.150;2023-06-22T07:07:01;27.60;1.00
774;DHT22;370;48.810;9.150;2023-06-22T07:09:29;27.80;1.00
774;DHT22;370;48.810;9.150;2023-06-22T07:11:56;27.90;1.00
774;DHT22;370;48.810;9.150;2023-06-22T07:14:23;28.10;1.00
774;DHT22;370;48.810;9.150;2023-06-22T07:16:50;28.50;1.00
774;DHT22;370;48.810;9.150;2023-06-22T07:19:24;29.00;1.00
774;DHT22;370;48.810;9.150;2023-06-22T07:21:51;29.70;1.00
774;DHT22;370;48.810;9.150;2023-06-22T07:24:19;30.00;1.00
774;DHT22;370;48.810;9.150;2023-06-22T07:26:47;30.60;1.00
774;DHT22;370;48.810;9.150;2023-06-22T07:29:16;31.00;1.00
774;DHT22;370;48.810;9.150;2023-06-22T07:31:43;31.20;1.00
774;DHT22;370;48.810;9.150;2023-06-22T07:34:10;31.50;1.00
774;DHT22;370;48.810;9.150;2023-06-22T07:36:37;31.90;1.00
774;DHT22;370;48.810;9.150;2023-06-22T07:39:03;31.90;1.00
774;DHT22;370;48.810;9.150;2023-06-22T07:41:50;32.10;1.00
774;DHT22;370;48.810;9.150;2023-06-22T07:44:17;31.90;1.00
774;DHT22;370;48.810;9.150;2023-06-22T07:46:44;32.40;1.00
774;DHT22;370;48.810;9.150;2023-06-22T07:49:11;33.50;1.00
774;DHT22;370;48.810;9.150;2023-06-22T07:51:38;34.60;1.00
774;DHT22;370;48.810;9.150;2023-06-22T07:54:05;34.60;1.00
774;DHT22;370;48.810;9.150;2023-06-22T07:56:32;35.60;1.00
774;DHT22;370;48.810;9.150;2023-06-22T07:59:00;36.40;1.00
774;DHT22;370;48.810;9.150;2023-06-22T08:01:29;36.00;1.00
774;DHT22;370;48.810;9.150;2023-06-22T08:03:56;35.80;1.00
774;DHT22;370;48.810;9.150;2023-06-22T08:06:22;36.30;1.00
774;DHT22;370;48.810;9.150;2023-06-22T08:08:49;36.50;1.00
774;DHT22;370;48.810;9.150;2023-06-22T08:11:18;37.00;1.00
774;DHT22;370;48.810;9.150;2023-06-22T08:13:45;37.50;1.00
774;DHT22;370;48.810;9.150;2023-06-22T08:16:13;37.90;1.00
774;DHT22;370;48.810;9.150;2023-06-22T08:18:40;36.00;1.00
774;DHT22;370;48.810;9.150;2023-06-22T08:21:07;36.70;1.00
774;DHT22;370;48.810;9.150;2023-06-22T08:23:33;37.10;1.00
774;DHT22;370;48.810;9.150;2023-06-22T08:26:00;38.40;1.00
774;DHT22;370;48.810;9.150;2023-06-22T08:28:27;38.70;1.00
774;DHT22;370;48.810;9.150;2023-06-22T08:30:54;38.90;1.00
774;DHT22;370;48.810;9.150;2023-06-22T08:33:22;38.10;1.00
774;DHT22;370;48.810;9.150;2023-06-22T08:39:15;37.20;1.00
774;DHT22;370;48.810;9.150;2023-06-22T08:41:42;36.00;1.00
774;DHT22;370;48.810;9.150;2023-06-22T08:44:10;35.00;1.00
774;DHT22;370;48.810;9.150;2023-06-22T08:46:37;34.40;1.00
774;DHT22;370;48.810;9.150;2023-06-22T08:49:07;34.90;1.00
774;DHT22;370;48.810;9.150;2023-06-22T08:51:35;36.20;1.00
774;DHT22;370;48.810;9.150;2023-06-22T08:54:02;38.00;1.00
774;DHT22;370;48.810;9.150;2023-06-22T08:56:28;39.80;1.00
774;DHT22;370;48.810;9.150;2023-06-22T08:58:55;41.60;1.00
774;DHT22;370;48.810;9.150;2023-06-22T09:01:22;41.30;1.00
774;DHT22;370;48.810;9.150;2023-06-22T09:03:49;40.20;1.00
774;DHT22;370;48.810;9.150;2023-06-22T09:06:21;39.70;1.00
774;DHT22;370;48.810;9.150;2023-06-22T09:08:48;40.00;1.00
774;DHT22;370;48.810;9.150;2023-06-22T09:11:15;40.30;1.00
774;DHT22;370;48.810;9.150;2023-06-22T09:13:41;41.60;1.00
774;DHT22;370;48.810;9.150;2023-06-22T09:16:09;41.50;1.00
774;DHT22;370;48.810;9.150;2023-06-22T09:18:35;41.40;1.00
774;DHT22;370;48.810;9.150;2023-06-22T09:21:02;40.90;1.00
774;DHT22;370;48.810;9.150;2023-06-22T09:23:30;40.10;1.00
774;DHT22;370;48.810;9.150;2023-06-22T09:25:57;39.50;1.00
774;DHT22;370;48.810;9.150;2023-06-22T09:28:24;39.90;1.00
774;DHT22;370;48.810;9.150;2023-06-22T09:30:51;40.30;1.00
774;DHT22;370;48.810;9.150;2023-06-22T09:33:24;40.70;1.00
774;DHT22;370;48.810;9.150;2023-06-22T09:35:51;40.90;1.00
774;DHT22;370;48.810;9.150;2023-06-22T09:38:18;41.50;1.00
774;DHT22;370;48.810;9.150;2023-06-22T09:40:46;43.80;1.00
774;DHT22;370;48.810;9.150;2023-06-22T09:43:13;45.80;1.00
774;DHT22;370;48.810;9.150;2023-06-22T09:45:40;47.00;1.00
774;DHT22;370;48.810;9.150;2023-06-22T09:48:07;48.40;1.00
774;DHT22;370;48.810;9.150;2023-06-22T09:50:35;47.30;1.00
774;DHT22;370;48.810;9.150;2023-06-22T09:53:02;47.20;1.00
774;DHT22;370;48.810;9.150;2023-06-22T09:55:29;46.30;1.00
774;DHT22;370;48.810;9.150;2023-06-22T09:57:57;44.90;1.00
774;DHT22;370;48.810;9.150;2023-06-22T10:00:24;43.60;1.00
774;DHT22;370;48.810;9.150;2023-06-22T10:02:52;43.90;1.00
774;DHT22;370;48.810;9.150;2023-06-22T10:05:19;45.90;1.00
774;DHT22;370;48.810;9.150;2023-06-22T10:07:45;46.30;1.00
774;DHT22;370;48.810;9.150;2023-06-22T10:10:13;45.60;1.00
774;DHT22;370;48.810;9.150;2023-06-22T10:12:45;44.40;1.00
774;DHT22;370;48.810;9.150;2023-06-22T10:15:14;42.40;1.00
774;DHT22;370;48.810;9.150;2023-06-22T10:17:41;41.00;1.00
774;DHT22;370;48.810;9.150;2023-06-22T10:20:08;39.30;1.00
774;DHT22;370;48.810;9.150;2023-06-22T10:22:39;38.60;1.00
774;DHT22;370;48.810;9.150;2023-06-22T10:25:07;39.40;1.00
774;DHT22;370;48.810;9.150;2023-06-22T10:27:34;39.50;1.00
774;DHT22;370;48.810;9.150;2023-06-22T10:30:01;41.00;1.00
774;DHT22;370;48.810;9.150;2023-06-22T10:32:29;42.10;1.00
774;DHT22;370;48.810;9.150;2023-06-22T10:34:56;43.00;1.00
774;DHT22;370;48.810;9.150;2023-06-22T10:37:23;43.70;1.00
774;DHT22;370;48.810;9.150;2023-06-22T10:39:49;45.20;1.00
774;DHT22;370;48.810;9.150;2023-06-22T10:42:16;45.80;1.00
774;DHT22;370;48.810;9.150;2023-06-22T10:44:43;46.60;1.00
774;DHT22;370;48.810;9.150;2023-06-22T10:47:10;45.00;1.00
774;DHT22;370;48.810;9.150;2023-06-22T10:49:38;46.70;1.00
774;DHT22;370;48.810;9.150;2023-06-22T10:52:06;47.10;1.00
774;DHT22;370;48.810;9.150;2023-06-22T10:54:34;45.90;1.00
774;DHT22;370;48.810;9.150;2023-06-22T10:57:01;45.60;1.00
774;DHT22;370;48.810;9.150;2023-06-22T10:59:29;43.10;1.00
774;DHT22;370;48.810;9.150;2023-06-22T11:01:56;42.30;1.00
774;DHT22;370;48.810;9.150;2023-06-22T11:04:23;41.20;1.00
774;DHT22;370;48.810;9.150;2023-06-22T11:06:51;40.40;1.00
774;DHT22;370;48.810;9.150;2023-06-22T11:09:18;39.70;1.00
774;DHT22;370;48.810;9.150;2023-06-22T11:11:46;39.50;1.00
774;DHT22;370;48.810;9.150;2023-06-22T11:14:13;39.00;1.00
774;DHT22;370;48.810;9.150;2023-06-22T11:16:40;39.20;1.00
774;DHT22;370;48.810;9.150;2023-06-22T11:19:07;39.50;1.00
774;DHT22;370;48.810;9.150;2023-06-22T11:24:56;39.70;1.00
774;DHT22;370;48.810;9.150;2023-06-22T11:27:23;38.80;1.00
774;DHT22;370;48.810;9.150;2023-06-22T11:29:50;38.10;1.00
774;DHT22;370;48.810;9.150;2023-06-22T11:32:18;37.90;1.00
774;DHT22;370;48.810;9.150;2023-06-22T11:34:45;37.60;1.00
774;DHT22;370;48.810;9.150;2023-06-22T11:37:12;37.60;1.00
774;DHT22;370;48.810;9.150;2023-06-22T11:39:38;37.30;1.00
774;DHT22;370;48.810;9.150;2023-06-22T11:42:07;37.30;1.00
774;DHT22;370;48.810;9.150;2023-06-22T11:44:34;37.20;1.00
774;DHT22;370;48.810;9.150;2023-06-22T11:47:01;37.20;1.00
774;DHT22;370;48.810;9.150;2023-06-22T11:49:30;37.20;1.00
774;DHT22;370;48.810;9.150;2023-06-22T11:51:57;37.30;1.00
774;DHT22;370;48.810;9.150;2023-06-22T11:54:24;37.40;1.00
774;DHT22;370;48.810;9.150;2023-06-22T11:56:50;37.30;1.00
774;DHT22;370;48.810;9.150;2023-06-22T11:59:18;37.20;1.00
774;DHT22;370;48.810;9.150;2023-06-22T12:01:47;37.40;1.00
774;DHT22;370;48.810;9.150;2023-06-22T12:04:16;36.50;1.00
774;DHT22;370;48.810;9.150;2023-06-22T12:06:43;36.10;1.00
774;DHT22;370;48.810;9.150;2023-06-22T12:09:10;36.00;1.00
774;DHT22;370;48.810;9.150;2023-06-22T12:11:39;35.70;1.00
774;DHT22;370;48.810;9.150;2023-06-22T12:14:05;35.30;1.00
774;DHT22;370;48.810;9.150;2023-06-22T12:16:34;35.00;1.00
774;DHT22;370;48.810;9.150;2023-06-22T12:19:00;35.10;1.00
774;DHT22;370;48.810;9.150;2023-06-22T12:21:27;35.10;1.00
774;DHT22;370;48.810;9.150;2023-06-22T12:23:54;35.10;1.00
774;DHT22;370;48.810;9.150;2023-06-22T12:26:21;35.40;1.00
774;DHT22;370;48.810;9.150;2023-06-22T12:28:48;36.00;1.00
774;DHT22;370;48.810;9.150;2023-06-22T12:31:15;36.40;1.00
774;DHT22;370;48.810;9.150;2023-06-22T12:33:43;37.00;1.00
774;DHT22;370;48.810;9.150;2023-06-22T12:36:10;37.10;1.00
774;DHT22;370;48.810;9.150;2023-06-22T12:38:38;37.00;1.00
774;DHT22;370;48.810;9.150;2023-06-22T12:41:05;36.80;1.00
774;DHT22;370;48.810;9.150;2023-06-22T12:43:32;36.30;1.00
774;DHT22;370;48.810;9.150;2023-06-22T12:45:58;36.00;1.00
774;DHT22;370;48.810;9.150;2023-06-22T12:48:26;36.10;1.00
774;DHT22;370;48.810;9.150;2023-06-22T12:50:54;36.40;1.00
774;DHT22;370;48.810;9.150;2023-06-22T12:53:21;36.60;1.00
774;DHT22;370;48.810;9.150;2023-06-22T12:55:49;36.50;1.00
774;DHT22;370;48.810;9.150;2023-06-22T12:58:15;36.40;1.00
774;DHT22;370;48.810;9.150;2023-06-22T13:00:42;36.40;1.00
774;DHT22;370;48.810;9.150;2023-06-22T13:03:09;35.90;1.00
774;DHT22;370;48.810;9.150;2023-06-22T13:05:36;35.50;1.00
774;DHT22;370;48.810;9.150;2023-06-22T13:08:05;35.10;1.00
774;DHT22;370;48.810;9.150;2023-06-22T13:10:31;35.00;1.00
774;DHT22;370;48.810;9.150;2023-06-22T13:12:58;34.60;1.00
774;DHT22;370;48.810;9.150;2023-06-22T13:15:26;34.60;1.00
774;DHT22;370;48.810;9.150;2023-06-22T13:17:53;34.50;1.00
774;DHT22;370;48.810;9.150;2023-06-22T13:20:20;34.40;1.00
774;DHT22;370;48.810;9.150;2023-06-22T13:22:47;34.30;1.00
774;DHT22;370;48.810;9.150;2023-06-22T13:25:22;34.30;1.00
774;DHT22;370;48.810;9.150;2023-06-22T13:27:52;34.50;1.00
774;DHT22;370;48.810;9.150;2023-06-22T13:30:18;34.90;1.00
774;DHT22;370;48.810;9.150;2023-06-22T13:32:45;35.10;1.00
774;DHT22;370;48.810;9.150;2023-06-22T13:35:12;35.10;1.00
774;DHT22;370;48.810;9.150;2023-06-22T13:37:39;35.50;1.00
774;DHT22;370;48.810;9.150;2023-06-22T13:40:07;35.40;1.00
774;DHT22;370;48.810;9.150;2023-06-22T13:42:35;35.30;1.00
774;DHT22;370;48.810;9.150;2023-06-22T13:45:03;35.20;1.00
774;DHT22;370;48.810;9.150;2023-06-22T13:47:30;35.40;1.00
774;DHT22;370;48.810;9.150;2023-06-22T13:49:57;35.50;1.00
774;DHT22;370;48.810;9.150;2023-06-22T13:52:24;35.40;1.00
774;DHT22;370;48.810;9.150;2023-06-22T13:54:50;35.50;1.00
774;DHT22;370;48.810;9.150;2023-06-22T13:57:17;35.40;1.00
774;DHT22;370;48.810;9.150;2023-06-22T13:59:45;35.30;1.00
774;DHT22;370;48.810;9.150;2023-06-22T14:02:12;35.50;1.00
774;DHT22;370;48.810;9.150;2023-06-22T14:04:39;35.50;1.00
774;DHT22;370;48.810;9.150;2023-06-22T14:07:06;35.40;1.00
774;DHT22;370;48.810;9.150;2023-06-22T14:09:32;35.70;1.00
774;DHT22;370;48.810;9.150;2023-06-22T14:12:03;36.10;1.00
774;DHT22;370;48.810;9.150;2023-06-22T14:14:30;36.50;1.00
774;DHT22;370;48.810;9.150;2023-06-22T14:16:58;36.80;1.00
774;DHT22;370;48.810;9.150;2023-06-22T14:19:25;37.10;1.00
774;DHT22;370;48.810;9.150;2023-06-22T14:21:52;37.70;1.00
774;DHT22;370;48.810;9.150;2023-06-22T14:24:18;38.80;1.00
774;DHT22;370;48.810;9.150;2023-06-22T14:26:45;39.90;1.00
774;DHT22;370;48.810;9.150;2023-06-22T14:29:12;40.00;1.00
774;DHT22;370;48.810;9.150;2023-06-22T14:31:39;40.40;1.00
774;DHT22;370;48.810;9.150;2023-06-22T14:34:07;40.30;1.00
774;DHT22;370;48.810;9.150;2023-06-22T14:36:33;40.10;1.00
774;DHT22;370;48.810;9.150;2023-06-22T14:39:00;39.80;1.00
774;DHT22;370;48.810;9.150;2023-06-22T14:41:27;39.80;1.00
774;DHT22;370;48.810;9.150;2023-06-22T14:43:54;39.70;1.00
774;DHT22;370;48.810;9.150;2023-06-22T14:46:20;39.70;1.00
774;DHT22;370;48.810;9.150;2023-06-22T14:48:47;40.60;1.00
774;DHT22;370;48.810;9.150;2023-06-22T14:51:15;42.10;1.00
774;DHT22;370;48.810;9.150;2023-06-22T14:53:43;43.30;1.00
774;DHT22;370;48.810;9.150;2023-06-22T14:56:10;44.30;1.00
774;DHT22;370;48.810;9.150;2023-06-22T14:58:39;45.70;1.00
774;DHT22;370;48.810;9.150;2023-06-22T15:01:06;46.00;1.00
774;DHT22;370;48.810;9.150;2023-06-22T15:03:34;46.00;1.00
774;DHT22;370;48.810;9.150;2023-06-22T15:06:01;45.00;1.00
774;DHT22;370;48.810;9.150;2023-06-22T15:08:29;44.40;1.00
774;DHT22;370;48.810;9.150;2023-06-22T15:10:58;43.60;1.00
774;DHT22;370;48.810;9.150;2023-06-22T15:13:26;42.80;1.00
774;DHT22;370;48.810;9.150;2023-06-22T15:15:53;42.50;1.00
774;DHT22;370;48.810;9.150;2023-06-22T15:18:19;42.20;1.00
774;DHT22;370;48.810;9.150;2023-06-22T15:20:46;41.50;1.00
774;DHT22;370;48.810;9.150;2023-06-22T15:23:13;41.30;1.00
774;DHT22;370;48.810;9.150;2023-06-22T15:25:41;41.70;1.00
774;DHT22;370;48.810;9.150;2023-06-22T15:28:10;42.00;1.00
774;DHT22;370;48.810;9.150;2023-06-22T15:30:36;42.40;1.00
774;DHT22;370;48.810;9.150;2023-06-22T15:33:03;41.80;1.00
774;DHT22;370;48.810;9.150;2023-06-22T15:35:30;41.90;1.00
774;DHT22;370;48.810;9.150;2023-06-22T15:37:57;41.40;1.00
774;DHT22;370;48.810;9.150;2023-06-22T15:40:25;41.20;1.00
774;DHT22;370;48.810;9.150;2023-06-22T15:42:53;40.90;1.00
774;DHT22;370;48.810;9.150;2023-06-22T15:45:20;40.40;1.00
774;DHT22;370;48.810;9.150;2023-06-22T15:47:47;39.40;1.00
774;DHT22;370;48.810;9.150;2023-06-22T15:50:13;38.80;1.00
774;DHT22;370;48.810;9.150;2023-06-22T15:52:40;38.40;1.00
774;DHT22;370;48.810;9.150;2023-06-22T15:55:08;37.60;1.00
774;DHT22;370;48.810;9.150;2023-06-22T15:57:35;37.10;1.00
774;DHT22;370;48.810;9.150;2023-06-22T16:00:04;36.80;1.00
774;DHT22;370;48.810;9.150;2023-06-22T16:02:33;36.50;1.00
774;DHT22;370;48.810;9.150;2023-06-22T16:05:00;36.00;1.00
774;DHT22;370;48.810;9.150;2023-06-22T16:07:28;35.80;1.00
774;DHT22;370;48.810;9.150;2023-06-22T16:09:55;35.40;1.00
774;DHT22;370;48.810;9.150;2023-06-22T16:12:21;35.20;1.00
774;DHT22;370;48.810;9.150;2023-06-22T16:14:50;34.90;1.00
774;DHT22;370;48.810;9.150;2023-06-22T16:17:18;34.70;1.00
774;DHT22;370;48.810;9.150;2023-06-22T16:19:45;34.50;1.00
774;DHT22;370;48.810;9.150;2023-06-22T16:22:11;34.20;1.00
774;DHT22;370;48.810;9.150;2023-06-22T16:24:38;33.90;1.00
774;DHT22;370;48.810;9.150;2023-06-22T16:27:05;33.80;1.00
774;DHT22;370;48.810;9.150;2023-06-22T16:29:32;33.50;1.00
774;DHT22;370;48.810;9.150;2023-06-22T16:31:59;33.30;1.00
774;DHT22;370;48.810;9.150;2023-06-22T16:34:27;32.90;1.00
774;DHT22;370;48.810;9.150;2023-06-22T16:36:53;32.70;1.00
774;DHT22;370;48.810;9.150;2023-06-22T16:39:20;32.60;1.00
774;DHT22;370;48.810;9.150;2023-06-22T16:41:47;32.50;1.00
774;DHT22;370;48.810;9.150;2023-06-22T16:44:15;32.40;1.00
774;DHT22;370;48.810;9.150;2023-06-22T16:46:42;32.40;1.00
774;DHT22;370;48.810;9.150;2023-06-22T16:49:09;32.50;1.00
774;DHT22;370;48.810;9.150;2023-06-22T16:51:37;32.60;1.00
774;DHT22;370;48.810;9.150;2023-06-22T16:54:04;32.60;1.00
774;DHT22;370;48.810;9.150;2023-06-22T16:56:31;32.40;1.00